sensor_id;sensor_type;location;lat;lon;timestamp;temperature;humidity
36790;DHT22;22740;52.182;8.780;2023-03-08T00:01:15;0.70;99.90
36790;DHT22;22740;52.182;8.780;2023-03-08T00:07:17;0.70;99.90
36790;DHT22;22740;52.182;8.780;2023-03-08T00:13:19;0.70;99.90
36790;DHT22;22740;52.182;8.780;2023-03-08T00:19:21;0.70;99.90
36790;DHT22;22740;52.182;8.780;2023-03-08T00:25:23;0.70;99.90
36790;DHT22;22740;52.182;8.780;2023-03-08T00:31:24;0.70;99.90
36790;DHT22;22740;52.182;8.780;2023-03-08T00:37:26;0.70;99.90
36790;DHT22;22740;52.182;8.780;2023-03-08T00:43:29;0.80;99.90
36790;DHT22;22740;52.182;8.780;2023-03-08T00:49:31;0.60;99.90
36790;DHT22;22740;52.182;8.780;2023-03-08T00:55:33;0.60;99.90
36790;DHT22;22740;52.182;8.780;2023-03-08T01:01:35;0.60;99.90
36790;DHT22;22740;52.182;8.780;2023-03-08T01:07:37;0.60;99.90
36790;DHT22;22740;52.182;8.780;2023-03-08T01:13:39;0.60;99.90
36790;DHT22;22740;52.182;8.780;2023-03-08T01:19:41;0.40;99.90
36790;DHT22;22740;52.182;8.780;2023-03-08T01:25:43;0.50;99.90
36790;DHT22;22740;52.182;8.780;2023-03-08T01:31:45;0.60;99.90
36790;DHT22;22740;52.182;8.780;2023-03-08T01:37:50;0.50;99.90
36790;DHT22;22740;52.182;8.780;2023-03-08T01:43:54;0.40;99.90
36790;DHT22;22740;52.182;8.780;2023-03-08T01:50:03;0.40;99.90
36790;DHT22;22740;52.182;8.780;2023-03-08T01:56:09;0.30;99.90
36790;DHT22;22740;52.182;8.780;2023-03-08T02:02:12;0.30;99.90
36790;DHT22;22740;52.182;8.780;2023-03-08T02:08:14;0.10;99.90
36790;DHT22;22740;52.182;8.780;2023-03-08T02:14:15;0.10;99.90
36790;DHT22;22740;52.182;8.780;2023-03-08T02:20:28;0.20;99.90
36790;DHT22;22740;52.182;8.780;2023-03-08T02:26:32;0.10;99.90
36790;DHT22;22740;52.182;8.780;2023-03-08T02:32:34;-0.10;99.90
36790;DHT22;22740;52.182;8.780;2023-03-08T02:38:36;-0.30;99.90
36790;DHT22;22740;52.182;8.780;2023-03-08T02:44:38;-0.40;99.90
36790;DHT22;22740;52.182;8.780;2023-03-08T02:50:40;-0.40;99.90
36790;DHT22;22740;52.182;8.780;2023-03-08T02:56:42;-0.40;99.90
36790;DHT22;22740;52.182;8.780;2023-03-08T03:02:44;-0.40;99.90
36790;DHT22;22740;52.182;8.780;2023-03-08T03:08:47;-0.20;99.90
36790;DHT22;22740;52.182;8.780;2023-03-08T03:14:49;-0.10;99.90
36790;DHT22;22740;52.182;8.780;2023-03-08T03:20:51;0.00;99.90
36790;DHT22;22740;52.182;8.780;2023-03-08T03:26:53;0.00;99.90
36790;DHT22;22740;52.182;8.780;2023-03-08T03:32:55;0.00;99.90
36790;DHT22;22740;52.182;8.780;2023-03-08T03:38:57;0.10;99.90
36790;DHT22;22740;52.182;8.780;2023-03-08T03:44:59;0.00;99.90
36790;DHT22;22740;52.182;8.780;2023-03-08T03:51:04;0.10;99.90
36790;DHT22;22740;52.182;8.780;2023-03-08T03:57:07;0.10;99.90
36790;DHT22;22740;52.182;8.780;2023-03-08T04:03:08;0.10;99.90
36790;DHT22;22740;52.182;8.780;2023-03-08T04:09:15;0.10;99.90
36790;DHT22;22740;52.182;8.780;2023-03-08T04:15:18;0.10;99.90
36790;DHT22;22740;52.182;8.780;2023-03-08T04:21:23;0.10;99.90
36790;DHT22;22740;52.182;8.780;2023-03-08T04:27:25;0.10;99.90
36790;DHT22;22740;52.182;8.780;2023-03-08T04:33:28;0.10;99.90
36790;DHT22;22740;52.182;8.780;2023-03-08T04:39:30;0.10;99.90
36790;DHT22;22740;52.182;8.780;2023-03-08T04:45:32;0.10;99.90
36790;DHT22;22740;52.182;8.780;2023-03-08T04:51:34;0.10;99.90
36790;DHT22;22740;52.182;8.780;2023-03-08T04:57:36;0.00;99.90
36790;DHT22;22740;52.182;8.780;2023-03-08T05:03:38;0.00;99.90
36790;DHT22;22740;52.182;8.780;2023-03-08T05:09:39;0.10;99.90
36790;DHT22;22740;52.182;8.780;2023-03-08T05:15:43;0.10;99.90
36790;DHT22;22740;52.182;8.780;2023-03-08T05:21:45;0.00;99.90
36790;DHT22;22740;52.182;8.780;2023-03-08T05:27:47;-0.10;99.90
36790;DHT22;22740;52.182;8.780;2023-03-08T05:33:50;-0.20;99.90
36790;DHT22;22740;52.182;8.780;2023-03-08T05:39:52;-0.20;99.90
36790;DHT22;22740;52.182;8.780;2023-03-08T05:46:16;-0.40;99.90
36790;DHT22;22740;52.182;8.780;2023-03-08T05:52:18;-0.40;99.90
36790;DHT22;22740;52.182;8.780;2023-03-08T05:58:20;-0.40;99.90
36790;DHT22;22740;52.182;8.780;2023-03-08T06:04:22;-0.40;99.90
36790;DHT22;22740;52.182;8.780;2023-03-08T06:10:24;-0.40;99.90
36790;DHT22;22740;52.182;8.780;2023-03-08T06:16:26;-0.40;99.90
36790;DHT22;22740;52.182;8.780;2023-03-08T06:22:28;-0.40;99.90
36790;DHT22;22740;52.182;8.780;2023-03-08T06:28:30;-0.40;99.90
36790;DHT22;22740;52.182;8.780;2023-03-08T06:34:33;-0.30;99.90
36790;DHT22;22740;52.182;8.780;2023-03-08T06:40:35;-0.30;99.90
36790;DHT22;22740;52.182;8.780;2023-03-08T06:46:37;-0.20;99.90
36790;DHT22;22740;52.182;8.780;2023-03-08T06:52:38;-0.20;99.90
36790;DHT22;22740;52.182;8.780;2023-03-08T06:58:41;0.00;99.90
36790;DHT22;22740;52.182;8.780;2023-03-08T07:04:43;0.20;99.90
36790;DHT22;22740;52.182;8.780;2023-03-08T07:10:45;0.20;99.90
36790;DHT22;22740;52.182;8.780;2023-03-08T07:16:47;0.40;99.90
36790;DHT22;22740;52.182;8.780;2023-03-08T07:22:49;0.80;99.90
36790;DHT22;22740;52.182;8.780;2023-03-08T07:28:51;0.70;99.90
36790;DHT22;22740;52.182;8.780;2023-03-08T07:34:54;1.00;99.90
36790;DHT22;22740;52.182;8.780;2023-03-08T07:40:56;1.20;99.90
36790;DHT22;22740;52.182;8.780;2023-03-08T07:46:58;0.70;99.90
36790;DHT22;22740;52.182;8.780;2023-03-08T07:53:00;0.80;99.90
36790;DHT22;22740;52.182;8.780;2023-03-08T07:59:03;0.70;99.90
36790;DHT22;22740;52.182;8.780;2023-03-08T08:05:05;0.80;99.90
36790;DHT22;22740;52.182;8.780;2023-03-08T08:11:14;1.20;99.90
36790;DHT22;22740;52.182;8.780;2023-03-08T08:17:17;1.50;99.90
36790;DHT22;22740;52.182;8.780;2023-03-08T08:23:20;2.00;99.90
36790;DHT22;22740;52.182;8.780;2023-03-08T08:29:22;2.30;99.90
36790;DHT22;22740;52.182;8.780;2023-03-08T08:35:24;1.90;99.90
36790;DHT22;22740;52.182;8.780;2023-03-08T08:41:42;2.20;99.90
36790;DHT22;22740;52.182;8.780;2023-03-08T08:47:44;1.90;99.90
36790;DHT22;22740;52.182;8.780;2023-03-08T08:53:46;1.70;99.90
36790;DHT22;22740;52.182;8.780;2023-03-08T08:59:48;1.70;99.90
36790;DHT22;22740;52.182;8.780;2023-03-08T09:05:50;1.80;99.90
36790;DHT22;22740;52.182;8.780;2023-03-08T09:11:53;1.70;99.90
36790;DHT22;22740;52.182;8.780;2023-03-08T09:17:56;1.90;99.90
36790;DHT22;22740;52.182;8.780;2023-03-08T09:24:01;1.80;99.90
36790;DHT22;22740;52.182;8.780;2023-03-08T09:30:05;1.70;99.90
36790;DHT22;22740;52.182;8.780;2023-03-08T09:36:07;1.80;99.90
36790;DHT22;22740;52.182;8.780;2023-03-08T09:42:36;1.90;99.90
36790;DHT22;22740;52.182;8.780;2023-03-08T09:48:43;2.20;99.90
36790;DHT22;22740;52.182;8.780;2023-03-08T09:54:47;2.20;99.90
36790;DHT22;22740;52.182;8.780;2023-03-08T10:00:50;2.60;99.90
36790;DHT22;22740;52.182;8.780;2023-03-08T10:19:29;2.90;99.90
36790;DHT22;22740;52.182;8.780;2023-03-08T10:25:33;2.90;99.90
36790;DHT22;22740;52.182;8.780;2023-03-08T10:31:35;2.40;99.90
36790;DHT22;22740;52.182;8.780;2023-03-08T10:37:37;2.20;99.90
36790;DHT22;22740;52.182;8.780;2023-03-08T10:43:51;2.00;99.90
36790;DHT22;22740;52.182;8.780;2023-03-08T10:50:16;2.10;99.90
36790;DHT22;22740;52.182;8.780;2023-03-08T11:02:32;2.20;99.90
36790;DHT22;22740;52.182;8.780;2023-03-08T11:08:37;2.20;99.90
36790;DHT22;22740;52.182;8.780;2023-03-08T11:14:39;2.10;99.90
36790;DHT22;22740;52.182;8.780;2023-03-08T11:20:56;2.20;99.90
36790;DHT22;22740;52.182;8.780;2023-03-08T11:33:32;2.50;99.90
36790;DHT22;22740;52.182;8.780;2023-03-08T11:39:45;2.70;99.90
36790;DHT22;22740;52.182;8.780;2023-03-08T11:58:52;2.40;99.90
36790;DHT22;22740;52.182;8.780;2023-03-08T12:11:28;2.50;99.90
36790;DHT22;22740;52.182;8.780;2023-03-08T12:17:43;2.50;99.90
36790;DHT22;22740;52.182;8.780;2023-03-08T12:36:52;2.20;99.90
36790;DHT22;22740;52.182;8.780;2023-03-08T12:43:28;2.00;99.90
36790;DHT22;22740;52.182;8.780;2023-03-08T12:49:34;2.20;99.90
36790;DHT22;22740;52.182;8.780;2023-03-08T12:55:36;2.10;99.90
36790;DHT22;22740;52.182;8.780;2023-03-08T13:01:44;2.20;99.90
36790;DHT22;22740;52.182;8.780;2023-03-08T13:14:38;2.10;99.90
36790;DHT22;22740;52.182;8.780;2023-03-08T13:27:24;1.80;99.90
36790;DHT22;22740;52.182;8.780;2023-03-08T13:33:32;1.90;99.90
36790;DHT22;22740;52.182;8.780;2023-03-08T13:39:37;2.00;99.90
36790;DHT22;22740;52.182;8.780;2023-03-08T13:45:39;1.90;99.90
36790;DHT22;22740;52.182;8.780;2023-03-08T13:51:43;1.90;99.90
36790;DHT22;22740;52.182;8.780;2023-03-08T13:57:50;1.80;99.90
36790;DHT22;22740;52.182;8.780;2023-03-08T14:03:54;1.80;99.90
36790;DHT22;22740;52.182;8.780;2023-03-08T14:09:56;1.80;99.90
36790;DHT22;22740;52.182;8.780;2023-03-08T14:16:01;1.80;99.90
36790;DHT22;22740;52.182;8.780;2023-03-08T14:22:16;1.70;99.90
36790;DHT22;22740;52.182;8.780;2023-03-08T14:28:40;1.80;99.90
36790;DHT22;22740;52.182;8.780;2023-03-08T14:34:44;1.80;99.90
36790;DHT22;22740;52.182;8.780;2023-03-08T14:40:48;1.70;99.90
36790;DHT22;22740;52.182;8.780;2023-03-08T14:46:51;1.80;99.90
36790;DHT22;22740;52.182;8.780;2023-03-08T14:53:00;1.90;99.90
36790;DHT22;22740;52.182;8.780;2023-03-08T14:59:03;1.80;99.90
36790;DHT22;22740;52.182;8.780;2023-03-08T15:05:12;1.70;99.90
36790;DHT22;22740;52.182;8.780;2023-03-08T15:11:20;1.70;99.90
36790;DHT22;22740;52.182;8.780;2023-03-08T15:17:22;1.70;99.90
36790;DHT22;22740;52.182;8.780;2023-03-08T15:23:31;1.70;99.90
36790;DHT22;22740;52.182;8.780;2023-03-08T15:29:33;1.70;99.90
36790;DHT22;22740;52.182;8.780;2023-03-08T15:35:38;1.60;99.90
36790;DHT22;22740;52.182;8.780;2023-03-08T15:41:40;1.50;99.90
36790;DHT22;22740;52.182;8.780;2023-03-08T15:47:42;1.40;99.90
36790;DHT22;22740;52.182;8.780;2023-03-08T15:53:45;1.40;99.90
36790;DHT22;22740;52.182;8.780;2023-03-08T15:59:47;1.50;99.90
36790;DHT22;22740;52.182;8.780;2023-03-08T16:05:50;1.30;99.90
36790;DHT22;22740;52.182;8.780;2023-03-08T16:11:52;1.40;99.90
36790;DHT22;22740;52.182;8.780;2023-03-08T16:17:54;1.40;99.90
36790;DHT22;22740;52.182;8.780;2023-03-08T16:23:56;1.30;99.90
36790;DHT22;22740;52.182;8.780;2023-03-08T16:30:00;1.10;99.90
36790;DHT22;22740;52.182;8.780;2023-03-08T16:36:03;1.00;99.90
36790;DHT22;22740;52.182;8.780;2023-03-08T16:42:08;0.90;99.90
36790;DHT22;22740;52.182;8.780;2023-03-08T16:48:10;0.80;99.90
36790;DHT22;22740;52.182;8.780;2023-03-08T16:54:12;0.80;99.90
36790;DHT22;22740;52.182;8.780;2023-03-08T17:00:15;0.70;99.90
36790;DHT22;22740;52.182;8.780;2023-03-08T17:06:19;0.70;99.90
36790;DHT22;22740;52.182;8.780;2023-03-08T17:12:22;0.70;99.90
36790;DHT22;22740;52.182;8.780;2023-03-08T17:18:24;0.70;99.90
36790;DHT22;22740;52.182;8.780;2023-03-08T17:24:26;0.70;99.90
36790;DHT22;22740;52.182;8.780;2023-03-08T17:30:31;0.70;99.90
36790;DHT22;22740;52.182;8.780;2023-03-08T17:36:34;0.70;99.90
36790;DHT22;22740;52.182;8.780;2023-03-08T17:42:36;0.70;99.90
36790;DHT22;22740;52.182;8.780;2023-03-08T17:48:38;0.70;99.90
36790;DHT22;22740;52.182;8.780;2023-03-08T17:54:39;0.70;99.90
36790;DHT22;22740;52.182;8.780;2023-03-08T18:00:41;0.70;99.90
36790;DHT22;22740;52.182;8.780;2023-03-08T18:06:43;0.70;99.90
36790;DHT22;22740;52.182;8.780;2023-03-08T18:12:45;0.70;99.90
36790;DHT22;22740;52.182;8.780;2023-03-08T18:18:48;0.70;99.90
36790;DHT22;22740;52.182;8.780;2023-03-08T18:24:50;0.70;99.90
36790;DHT22;22740;52.182;8.780;2023-03-08T18:30:52;0.70;99.90
36790;DHT22;22740;52.182;8.780;2023-03-08T18:36:55;0.70;99.90
36790;DHT22;22740;52.182;8.780;2023-03-08T18:42:59;0.70;99.90
36790;DHT22;22740;52.182;8.780;2023-03-08T18:49:04;0.70;99.90
36790;DHT22;22740;52.182;8.780;2023-03-08T18:55:07;0.70;99.90
36790;DHT22;22740;52.182;8.780;2023-03-08T19:01:14;0.70;99.90
36790;DHT22;22740;52.182;8.780;2023-03-08T19:07:16;0.70;99.90
36790;DHT22;22740;52.182;8.780;2023-03-08T19:13:18;0.60;99.90
36790;DHT22;22740;52.182;8.780;2023-03-08T19:19:20;0.60;99.90
36790;DHT22;22740;52.182;8.780;2023-03-08T19:25:21;0.60;99.90
36790;DHT22;22740;52.182;8.780;2023-03-08T19:31:23;0.70;99.90
36790;DHT22;22740;52.182;8.780;2023-03-08T19:37:25;0.60;99.90
36790;DHT22;22740;52.182;8.780;2023-03-08T19:43:27;0.70;99.90
36790;DHT22;22740;52.182;8.780;2023-03-08T19:49:32;0.60;99.90
36790;DHT22;22740;52.182;8.780;2023-03-08T19:55:34;0.60;99.90
36790;DHT22;22740;52.182;8.780;2023-03-08T20:01:38;0.60;99.90
36790;DHT22;22740;52.182;8.780;2023-03-08T20:07:40;0.70;99.90
36790;DHT22;22740;52.182;8.780;2023-03-08T20:13:42;0.70;99.90
36790;DHT22;22740;52.182;8.780;2023-03-08T20:19:44;0.70;99.90
36790;DHT22;22740;52.182;8.780;2023-03-08T20:25:46;0.70;99.90
36790;DHT22;22740;52.182;8.780;2023-03-08T20:31:48;0.70;99.90
36790;DHT22;22740;52.182;8.780;2023-03-08T20:37:50;0.80;99.90
36790;DHT22;22740;52.182;8.780;2023-03-08T20:43:52;0.80;99.90
36790;DHT22;22740;52.182;8.780;2023-03-08T20:49:56;0.80;99.90
36790;DHT22;22740;52.182;8.780;2023-03-08T20:55:58;0.80;99.90
36790;DHT22;22740;52.182;8.780;2023-03-08T21:02:00;0.80;99.90
36790;DHT22;22740;52.182;8.780;2023-03-08T21:08:02;0.80;99.90
36790;DHT22;22740;52.182;8.780;2023-03-08T21:14:05;0.80;99.90
36790;DHT22;22740;52.182;8.780;2023-03-08T21:20:07;0.80;99.90
36790;DHT22;22740;52.182;8.780;2023-03-08T21:26:10;0.80;99.90
36790;DHT22;22740;52.182;8.780;2023-03-08T21:32:14;0.80;99.90
36790;DHT22;22740;52.182;8.780;2023-03-08T21:38:16;0.80;99.90
36790;DHT22;22740;52.182;8.780;2023-03-08T21:44:19;0.80;99.90
36790;DHT22;22740;52.182;8.780;2023-03-08T21:50:22;0.80;99.90
36790;DHT22;22740;52.182;8.780;2023-03-08T21:56:23;0.80;99.90
36790;DHT22;22740;52.182;8.780;2023-03-08T22:02:25;0.80;99.90
36790;DHT22;22740;52.182;8.780;2023-03-08T22:08:27;0.90;99.90
36790;DHT22;22740;52.182;8.780;2023-03-08T22:14:30;0.80;99.90
36790;DHT22;22740;52.182;8.780;2023-03-08T22:20:33;0.90;99.90
36790;DHT22;22740;52.182;8.780;2023-03-08T22:26:36;0.80;99.90
36790;DHT22;22740;52.182;8.780;2023-03-08T22:32:37;0.80;99.90
36790;DHT22;22740;52.182;8.780;2023-03-08T22:38:41;0.80;99.90
36790;DHT22;22740;52.182;8.780;2023-03-08T22:44:43;0.80;99.90
36790;DHT22;22740;52.182;8.780;2023-03-08T22:50:45;0.70;99.90
36790;DHT22;22740;52.182;8.780;2023-03-08T22:56:47;0.70;99.90
36790;DHT22;22740;52.182;8.780;2023-03-08T23:02:55;0.70;99.90
36790;DHT22;22740;52.182;8.780;2023-03-08T23:09:06;0.60;99.90
36790;DHT22;22740;52.182;8.780;2023-03-08T23:15:09;0.60;99.90
36790;DHT22;22740;52.182;8.780;2023-03-08T23:21:13;0.60;99.90
36790;DHT22;22740;52.182;8.780;2023-03-08T23:27:15;0.60;99.90
36790;DHT22;22740;52.182;8.780;2023-03-08T23:33:17;0.50;99.90
36790;DHT22;22740;52.182;8.780;2023-03-08T23:39:19;0.50;99.90
36790;DHT22;22740;52.182;8.780;2023-03-08T23:45:21;0.50;99.90
36790;DHT22;22740;52.182;8.780;2023-03-08T23:51:25;0.50;99.90
36790;DHT22;22740;52.182;8.780;2023-03-08T23:57:27;0.60;99.90
